Terminal Aerodrome Forecast
Issued by NWS

Current Version | Previous Version | Graphics & Text | Print | Product List | Glossary On
Versions: 1 2 3 4 5 6 7 8 9 10 11 12 13 14 15 16 17 18 19 20 21 22
000
FTUS41 KRNK 201123
TAFLWB
TAF
KLWB 201123Z 2012/2112 00000KT 1/4SM FG OVC001
     FM201300 00000KT 2SM BR SCT200
     FM201400 00000KT P6SM FEW250
     FM201900 29006KT P6SM FEW200=

USA.gov is the U.S. government's official web portal to all federal, state and local government web resources and services.